Time;durP1;ratioP1;P1;durP2;ratioP2;P2;SDS_P1;SDS_P2;PMS_P1;PMS_P2;Temp;Humidity;BMP_temperature;BMP_pressure;BME280_temperature;BME280_humidity;BME280_pressure;Samples;Min_cycle;Max_cycle;Signal;HPM_P1;HPM_P2
2022/02/17 00:00:33;;;;;;;56.55;36.30;;;;;;;14.44;43.92;98756.85;1702619;82;20976;-53
2022/02/17 00:03:00;;;;;;;58.20;35.63;;;;;;;14.41;43.85;98752.64;1706505;82;22235;-53
2022/02/17 00:05:27;;;;;;;55.15;33.75;;;;;;;14.46;43.70;98752.78;1704228;82;21353;-53
2022/02/17 00:07:56;;;;;;;54.60;33.38;;;;;;;14.52;43.60;98747.90;1713162;82;20988;-53
2022/02/17 00:10:26;;;;;;;55.28;35.15;;;;;;;14.49;43.43;98742.82;1723172;81;21455;-53
2022/02/17 00:12:57;;;;;;;61.37;37.10;;;;;;;14.42;43.42;98746.87;1710254;82;21517;-53
2022/02/17 00:15:28;;;;;;;53.63;34.78;;;;;;;14.30;43.48;98746.45;1710634;82;22094;-53
2022/02/17 00:17:56;;;;;;;58.68;37.13;;;;;;;14.11;43.69;98744.26;1706667;83;21483;-53
2022/02/17 00:20:23;;;;;;;52.40;34.00;;;;;;;14.12;43.83;98734.07;1711415;83;21484;-53
2022/02/17 00:22:51;;;;;;;56.42;38.05;;;;;;;14.23;43.77;98728.85;1711157;82;21450;-53
2022/02/17 00:25:18;;;;;;;51.98;34.43;;;;;;;14.31;43.50;98731.77;1710316;82;21456;-53
2022/02/17 00:27:45;;;;;;;61.33;38.33;;;;;;;14.29;43.39;98727.08;1709581;82;22095;-53
2022/02/17 00:30:12;;;;;;;53.13;33.08;;;;;;;14.28;43.33;98728.05;1709883;82;21493;-53
2022/02/17 00:32:39;;;;;;;50.50;30.67;;;;;;;14.24;43.56;98719.11;1706009;82;21012;-53
2022/02/17 00:35:07;;;;;;;63.10;35.80;;;;;;;14.27;43.57;98717.58;1705873;83;21467;-53
2022/02/17 00:37:34;;;;;;;50.03;32.63;;;;;;;14.26;43.38;98710.13;1706200;82;21790;-54
2022/02/17 00:40:03;;;;;;;54.38;34.78;;;;;;;14.11;43.44;98704.16;1715608;82;22068;-53
2022/02/17 00:42:30;;;;;;;;;;;;;;;14.06;43.46;98691.74;1719434;82;20986;-53
2022/02/17 00:44:57;;;;;;;45.23;29.87;;;;;;;14.06;43.49;98683.81;1710045;83;20154;-53
2022/02/17 00:47:23;;;;;;;51.25;32.98;;;;;;;14.07;43.74;98680.69;1709935;83;21499;-53
2022/02/17 00:49:50;;;;;;;50.30;32.88;;;;;;;14.08;43.71;98672.65;1707722;82;21490;-53
2022/02/17 00:52:17;;;;;;;50.25;33.75;;;;;;;14.12;43.59;98670.14;1707740;82;21967;-53
2022/02/17 00:54:43;;;;;;;51.95;32.85;;;;;;;14.07;43.47;98670.11;1711134;82;21485;-53
2022/02/17 00:57:10;;;;;;;44.00;30.10;;;;;;;13.98;43.78;98661.91;1711452;83;21485;-54
2022/02/17 00:59:36;;;;;;;46.58;30.05;;;;;;;14.07;43.82;98659.54;1682403;84;21404;-53
2022/02/17 01:02:04;;;;;;;51.20;32.75;;;;;;;14.04;43.87;98650.05;1682827;84;21430;-52
2022/02/17 01:04:32;;;;;;;48.78;31.80;;;;;;;14.08;43.71;98638.77;1692007;82;22029;-53
2022/02/17 01:06:59;;;;;;;43.73;30.68;;;;;;;14.05;43.69;98637.17;1709960;83;21533;-53
2022/02/17 01:09:27;;;;;;;43.15;28.90;;;;;;;13.95;44.14;98624.28;1705781;82;21616;-53
2022/02/17 01:11:54;;;;;;;41.53;28.77;;;;;;;14.10;44.03;98621.00;1710631;82;21474;-53
2022/02/17 01:14:21;;;;;;;43.23;29.82;;;;;;;14.22;43.77;98606.86;1710994;83;21478;-53
2022/02/17 01:16:48;;;;;;;53.17;32.23;;;;;;;14.22;43.77;98606.86;1710420;83;21422;-52
2022/02/17 01:19:17;;;;;;;44.25;29.75;;;;;;;14.08;44.13;98601.77;1704295;82;21456;-51
2022/02/17 01:21:45;;;;;;;39.58;28.77;;;;;;;13.96;44.32;98598.24;1699746;83;21467;-53
2022/02/17 01:24:12;;;;;;;39.43;28.63;;;;;;;14.09;44.27;98601.66;1709309;82;21460;-51
2022/02/17 01:26:40;;;;;;;39.10;29.60;;;;;;;14.21;44.11;98594.12;1711593;82;21466;-53
2022/02/17 01:29:07;;;;;;;45.60;30.50;;;;;;;14.21;44.07;98592.81;1708169;82;21474;-53
2022/02/17 01:31:34;;;;;;;40.67;28.42;;;;;;;14.22;44.09;98584.39;1688630;83;21429;-52
2022/02/17 01:34:03;;;;;;;37.63;26.75;;;;;;;14.25;44.10;98572.77;1710694;82;21557;-53
2022/02/17 01:36:30;;;;;;;39.88;28.73;;;;;;;14.18;44.31;98569.27;1716242;82;21612;-52
2022/02/17 01:38:57;;;;;;;39.50;30.53;;;;;;;14.18;44.52;98559.14;1711366;83;21538;-53
2022/02/17 01:41:24;;;;;;;45.75;31.05;;;;;;;14.13;44.41;98559.50;1711192;83;21807;-52
2022/02/17 01:43:52;;;;;;;41.42;28.80;;;;;;;14.12;44.58;98560.94;1710938;83;21418;-53
2022/02/17 01:46:38;;;;;;;42.55;28.47;;;;;;;14.17;44.68;98563.60;1711200;83;20986;-53
2022/02/17 01:49:05;;;;;;;41.80;30.30;;;;;;;14.31;44.51;98559.91;1710353;83;21489;-52
2022/02/17 01:51:32;;;;;;;43.38;31.75;;;;;;;14.25;44.71;98552.94;1711663;83;21100;-52
2022/02/17 01:54:00;;;;;;;41.10;30.60;;;;;;;14.26;44.40;98550.64;1709799;83;22610;-53
2022/02/17 01:57:46;;;;;;;41.05;31.57;;;;;;;12.06;51.19;98551.16;1771227;80;23107;-53
2022/02/17 02:00:15;;;;;;;41.37;30.62;;;;;;;14.08;45.44;98539.17;1707585;83;21489;-54
2022/02/17 02:02:42;;;;;;;43.80;30.60;;;;;;;14.14;45.08;98535.23;1688897;84;21788;-54
2022/02/17 02:05:09;;;;;;;;;;;;;;;14.05;45.40;98523.53;1691398;84;20954;-54
2022/02/17 02:07:37;;;;;;;42.27;29.50;;;;;;;14.16;45.27;98514.80;1685086;83;28556;-54
2022/02/17 02:10:06;;;;;;;45.00;32.65;;;;;;;14.21;44.96;98506.89;1654941;86;21145;-53
2022/02/17 02:12:35;;;;;;;42.78;30.70;;;;;;;14.22;44.89;98506.41;1684170;84;21587;-53
2022/02/17 02:15:05;;;;;;;46.00;32.08;;;;;;;14.18;45.16;98503.18;1656075;86;21794;-53
2022/02/17 02:17:33;;;;;;;43.58;31.65;;;;;;;14.21;45.39;98498.96;1638433;85;21510;-53
2022/02/17 02:20:05;;;;;;;44.67;31.77;;;;;;;14.29;45.30;98501.02;1656833;86;21429;-53
2022/02/17 02:22:33;;;;;;;45.38;31.73;;;;;;;14.15;45.21;98488.86;1686946;84;21497;-54
2022/02/17 02:25:01;;;;;;;46.23;31.12;;;;;;;14.19;45.49;98484.19;1717471;83;21108;-53
2022/02/17 02:27:29;;;;;;;44.20;30.00;;;;;;;14.07;45.93;98485.10;1717352;83;22127;-53
2022/02/17 02:29:56;;;;;;;45.48;32.50;;;;;;;14.21;45.93;98476.49;1716010;82;20962;-54
2022/02/17 02:32:25;;;;;;;47.80;31.95;;;;;;;14.13;46.03;98468.80;1696211;83;21526;-56
2022/02/17 02:34:51;;;;;;;43.68;28.17;;;;;;;14.10;46.01;98458.45;1679073;84;21506;-55
2022/02/17 02:37:18;;;;;;;45.00;30.48;;;;;;;13.87;46.89;98458.39;1688668;84;21072;-53
2022/02/17 02:39:45;;;;;;;39.47;28.93;;;;;;;14.22;46.41;98454.85;1686136;84;21921;-51
2022/02/17 02:42:12;;;;;;;44.08;31.50;;;;;;;14.18;46.39;98460.02;1686331;84;21453;-52
2022/02/17 02:44:39;;;;;;;45.95;31.95;;;;;;;14.26;46.31;98451.05;1689210;84;21561;-54
2022/02/17 02:47:07;;;;;;;43.68;31.27;;;;;;;14.00;46.54;98443.29;1673401;84;21476;-52
2022/02/17 02:49:38;;;;;;;43.25;29.87;;;;;;;14.21;46.71;98452.70;1715923;82;21672;-52
2022/02/17 02:52:06;;;;;;;44.70;28.85;;;;;;;14.35;46.58;98446.37;1684421;84;21828;-52
2022/02/17 02:54:38;;;;;;;45.98;32.63;;;;;;;14.10;46.70;98434.17;1712141;83;21459;-53
2022/02/17 02:57:04;;;;;;;45.35;30.20;;;;;;;14.35;46.25;98423.89;1674492;84;21530;-52
2022/02/17 02:59:31;;;;;;;50.63;32.55;;;;;;;14.30;46.56;98423.89;1683335;84;21530;-52
2022/02/17 03:02:00;;;;;;;47.60;30.72;;;;;;;14.27;47.08;98414.86;1673703;83;21510;-54
2022/02/17 03:04:27;;;;;;;46.23;32.38;;;;;;;14.35;46.72;98414.64;1671793;84;21824;-54
2022/02/17 03:06:54;;;;;;;48.85;32.20;;;;;;;14.30;46.96;98406.22;1675107;84;21510;-54
2022/02/17 03:09:21;;;;;;;;;;;;;;;13.97;47.45;98407.00;1673124;84;21613;-56
2022/02/17 03:11:49;;;;;;;50.33;30.52;;;;;;;14.17;47.34;98397.06;1682278;84;20430;-51
2022/02/17 03:14:16;;;;;;;47.53;31.42;;;;;;;14.06;46.96;98402.34;1675567;84;21530;-56
2022/02/17 03:16:45;;;;;;;51.55;32.50;;;;;;;14.37;46.95;98386.27;1654823;84;21856;-56
2022/02/17 03:19:13;;;;;;;50.30;33.23;;;;;;;14.46;47.00;98378.08;1656682;84;21664;-55
2022/02/17 03:21:42;;;;;;;54.55;33.98;;;;;;;14.12;47.33;98383.36;1685672;83;21563;-56
2022/02/17 03:24:09;;;;;;;52.50;33.23;;;;;;;14.11;47.44;98401.97;1669380;84;21464;-55
2022/02/17 03:26:41;;;;;;;50.85;34.30;;;;;;;14.14;47.44;98397.78;1694617;84;21557;-55
2022/02/17 03:29:08;;;;;;;50.53;33.73;;;;;;;14.19;47.39;98372.67;1690413;83;21837;-56
2022/02/17 03:31:37;;;;;;;50.70;32.93;;;;;;;14.39;47.35;98375.09;1678660;84;21628;-57
2022/02/17 03:34:05;;;;;;;61.83;35.48;;;;;;;14.17;47.47;98376.41;1644357;86;21562;-55
2022/02/17 03:36:32;;;;;;;56.73;35.25;;;;;;;14.30;47.08;98355.98;1646497;85;21583;-55
2022/02/17 03:39:00;;;;;;;50.03;34.33;;;;;;;14.03;47.86;98349.70;1661996;85;21444;-56
2022/02/17 03:41:28;;;;;;;51.90;34.33;;;;;;;14.41;47.11;98350.69;1661112;85;21840;-55
2022/02/17 03:43:57;;;;;;;58.05;35.43;;;;;;;14.64;46.80;98356.48;1689127;84;21477;-56
2022/02/17 03:46:27;;;;;;;55.20;36.48;;;;;;;14.58;46.64;98361.77;1684091;84;21471;-57
2022/02/17 03:48:53;;;;;;;51.77;34.30;;;;;;;14.36;46.96;98367.88;1671069;84;21447;-55
2022/02/17 03:51:21;;;;;;;53.25;34.08;;;;;;;14.26;47.49;98361.61;1682275;84;21432;-56
2022/02/17 03:53:47;;;;;;;52.88;34.33;;;;;;;14.43;47.05;98358.97;1681974;84;21861;-57
2022/02/17 03:56:14;;;;;;;51.23;35.88;;;;;;;14.59;46.75;98352.86;1680979;84;21671;-55
2022/02/17 03:59:01;;;;;;;55.08;33.35;;;;;;;13.98;47.93;98357.17;1674505;84;21514;-53
2022/02/17 04:01:29;;;;;;;55.43;35.60;;;;;;;14.33;47.35;98355.72;1680898;85;20986;-54
2022/02/17 04:03:58;;;;;;;54.15;35.63;;;;;;;14.52;47.07;98359.56;1680908;85;20962;-53
2022/02/17 04:06:25;;;;;;;;;;;;;;;14.50;46.94;98349.59;1676154;84;21871;-56
2022/02/17 04:08:51;;;;;;;58.75;36.60;;;;;;;14.12;46.99;98337.11;1670585;85;20494;-52
2022/02/17 04:11:19;;;;;;;57.70;36.03;;;;;;;14.05;47.99;98329.29;1673930;84;21580;-51
2022/02/17 04:13:49;;;;;;;52.33;35.40;;;;;;;13.86;48.43;98327.23;1679871;84;21558;-54
2022/02/17 04:16:18;;;;;;;57.00;37.08;;;;;;;14.12;47.87;98320.41;1661225;85;21599;-55
2022/02/17 04:18:47;;;;;;;60.48;38.02;;;;;;;14.38;47.23;98309.94;1647653;86;21836;-55
2022/02/17 04:21:17;;;;;;;58.05;38.90;;;;;;;14.44;47.11;98317.03;1650015;85;21589;-56
2022/02/17 04:24:01;;;;;;;58.92;37.98;;;;;;;14.44;46.93;98322.31;1652672;84;21546;-55
2022/02/17 04:26:29;;;;;;;60.38;37.15;;;;;;;14.33;47.22;98321.84;1657057;84;21653;-56
2022/02/17 04:28:58;;;;;;;53.63;35.60;;;;;;;14.53;47.11;98311.01;1678932;84;21487;-55
2022/02/17 04:31:27;;;;;;;61.05;40.03;;;;;;;14.53;46.85;98305.23;1680685;85;21684;-55
2022/02/17 04:33:56;;;;;;;63.08;38.17;;;;;;;14.51;46.81;98297.07;1680968;85;21444;-55
2022/02/17 04:36:24;;;;;;;56.15;37.48;;;;;;;14.17;47.29;98296.63;1680762;85;20959;-55
2022/02/17 04:38:52;;;;;;;55.98;36.03;;;;;;;14.55;46.72;98292.72;1650816;85;21228;-55
2022/02/17 04:44:13;;;;;;;56.50;36.42;;;;;;;14.70;46.37;98268.19;1672460;85;21562;-54
2022/02/17 04:46:42;;;;;;;58.63;39.03;;;;;;;14.77;45.81;98260.11;1680843;85;21560;-55
2022/02/17 04:49:08;;;;;;;57.35;36.90;;;;;;;14.95;45.60;98261.70;1680758;84;21454;-53
2022/02/17 04:51:37;;;;;;;62.08;37.93;;;;;;;14.94;45.56;98257.89;1680755;84;21447;-53
2022/02/17 04:54:04;;;;;;;59.50;39.67;;;;;;;14.18;47.21;98263.09;1679601;84;21052;-53
2022/02/17 04:56:33;;;;;;;60.38;38.15;;;;;;;14.56;46.24;98251.23;1649280;83;21813;-54
2022/02/17 04:59:00;;;;;;;65.03;40.88;;;;;;;14.06;47.15;98255.66;1667188;83;20987;-55
2022/02/17 05:01:28;;;;;;;59.88;37.60;;;;;;;14.49;46.54;98247.43;1647655;84;21473;-55
2022/02/17 05:03:56;;;;;;;59.50;38.50;;;;;;;14.62;46.33;98237.56;1597846;85;21518;-54
2022/02/17 05:06:23;;;;;;;56.08;36.45;;;;;;;14.74;45.87;98239.19;1670638;83;21050;-55
2022/02/17 05:08:52;;;;;;;66.35;39.05;;;;;;;14.38;46.33;98227.97;1665072;85;21563;-54
2022/02/17 05:11:20;;;;;;;64.35;39.25;;;;;;;14.39;46.42;98233.63;1675870;84;21406;-55
2022/02/17 05:13:48;;;;;;;59.85;39.45;;;;;;;14.35;46.77;98235.31;1672110;85;21057;-55
2022/02/17 05:16:17;;;;;;;58.58;40.05;;;;;;;14.58;46.35;98233.49;1645956;84;21519;-55
2022/02/17 05:18:45;;;;;;;58.25;37.90;;;;;;;14.53;46.04;98229.85;1650642;86;21507;-54
2022/02/17 05:21:14;;;;;;;60.05;38.88;;;;;;;14.76;45.44;98221.87;1657682;83;21921;-54
2022/02/17 05:23:59;;;;;;;60.85;38.15;;;;;;;14.60;46.08;98212.55;1619010;87;21463;-54
2022/02/17 05:26:46;;;;;;;58.10;38.80;;;;;;;14.63;45.83;98206.16;1628240;85;21476;-53
2022/02/17 05:29:24;;;;;;;59.55;35.25;;;;;;;14.60;45.72;98203.30;1663981;85;21082;-54
2022/02/17 05:32:09;;;;;;;59.00;36.13;;;;;;;14.04;46.76;98203.91;1676524;85;21459;-51
2022/02/17 05:34:37;;;;;;;57.50;37.67;;;;;;;14.41;46.35;98195.17;1673575;84;21596;-51
2022/02/17 05:37:23;;;;;;;56.85;36.80;;;;;;;14.68;45.98;98185.47;1645375;85;21525;-51
2022/02/17 05:40:11;;;;;;;57.13;37.33;;;;;;;14.90;45.56;98178.38;1668949;85;21478;-50
2022/02/17 05:42:38;;;;;;;59.83;36.83;;;;;;;14.59;45.64;98179.61;1653001;84;21518;-50
2022/02/17 05:45:06;;;;;;;60.90;37.75;;;;;;;14.82;45.35;98173.73;1652067;85;21540;-50
2022/02/17 05:47:33;;;;;;;55.30;34.78;;;;;;;14.73;45.75;98170.52;1624144;87;21947;-49
2022/02/17 05:50:00;;;;;;;55.00;36.80;;;;;;;14.79;45.64;98157.63;1652037;86;21450;-50
2022/02/17 05:52:26;;;;;;;60.35;38.48;;;;;;;14.67;45.71;98149.39;1651873;86;21593;-50
2022/02/17 05:54:53;;;;;;;62.50;37.48;;;;;;;14.67;45.59;98156.49;1655952;84;21549;-52
2022/02/17 05:57:21;;;;;;;59.50;36.63;;;;;;;14.59;45.95;98157.96;1654918;84;21596;-50
2022/02/17 05:59:48;;;;;;;59.67;36.88;;;;;;;14.76;45.85;98141.17;1681058;84;21797;-50
2022/02/17 06:02:16;;;;;;;62.38;39.75;;;;;;;14.92;45.36;98152.66;1705107;83;21131;-51
2022/02/17 06:04:44;;;;;;;55.88;36.63;;;;;;;14.78;45.41;98144.53;1708511;83;21484;-49
2022/02/17 06:07:13;;;;;;;;;;;;;;;14.81;45.22;98154.87;1669116;83;21599;-48
2022/02/17 06:09:41;;;;;;;54.20;35.52;;;;;;;14.76;45.48;98145.98;1699751;83;20177;-50
2022/02/17 06:12:09;;;;;;;57.67;38.63;;;;;;;14.89;45.26;98140.50;1699804;83;21770;-50
2022/02/17 06:14:36;;;;;;;63.25;38.83;;;;;;;14.73;45.60;98140.10;1711178;83;21944;-50
2022/02/17 06:17:04;;;;;;;65.03;39.53;;;;;;;14.86;45.10;98143.88;1711594;83;21447;-48
2022/02/17 06:19:30;;;;;;;64.25;38.80;;;;;;;14.84;45.07;98139.20;1711335;83;21606;-49
2022/02/17 06:21:57;;;;;;;57.27;38.53;;;;;;;14.91;45.34;98131.94;1704432;83;21610;-52
2022/02/17 06:24:26;;;;;;;57.62;36.77;;;;;;;14.67;45.85;98122.94;1695328;83;21516;-49
2022/02/17 06:26:52;;;;;;;59.00;37.40;;;;;;;14.93;45.29;98119.91;1697902;83;21541;-49
2022/02/17 06:29:19;;;;;;;57.80;38.63;;;;;;;14.92;45.10;98119.57;1701738;83;21515;-51
2022/02/17 06:31:46;;;;;;;64.75;38.08;;;;;;;14.79;44.99;98115.80;1701624;82;21535;-49
2022/02/17 06:34:13;;;;;;;62.75;39.00;;;;;;;14.82;45.50;98114.69;1676148;84;21519;-49
2022/02/17 06:36:44;;;;;;;64.90;40.52;;;;;;;14.64;45.86;98115.28;1690706;84;22593;-52
2022/02/17 06:39:12;;;;;;;61.00;37.70;;;;;;;14.81;45.80;98110.38;1710360;83;21540;-50
2022/02/17 06:41:39;;;;;;;62.65;38.58;;;;;;;15.04;44.90;98095.19;1700096;83;21577;-50
2022/02/17 06:44:06;;;;;;;60.30;37.67;;;;;;;15.15;44.64;98091.96;1675203;83;21855;-50
2022/02/17 06:46:34;;;;;;;60.15;37.10;;;;;;;14.82;45.58;98103.61;1687102;83;20999;-50
2022/02/17 06:49:02;;;;;;;59.27;35.38;;;;;;;15.01;45.26;98090.14;1688152;84;22124;-49
2022/02/17 06:51:29;;;;;;;55.43;35.80;;;;;;;15.02;45.19;98094.48;1711206;83;21626;-50
2022/02/17 06:53:56;;;;;;;59.58;39.08;;;;;;;15.31;44.55;98091.95;1680106;83;21468;-49
2022/02/17 06:56:24;;;;;;;66.75;36.77;;;;;;;15.08;44.84;98084.19;1710586;82;21467;-49
2022/02/17 06:58:52;;;;;;;51.77;33.83;;;;;;;15.00;45.11;98074.76;1672978;84;21575;-48
2022/02/17 07:01:23;;;;;;;59.08;35.78;;;;;;;14.96;45.40;98070.70;1661724;84;22075;-49
2022/02/17 07:03:48;;;;;;;57.58;38.98;;;;;;;15.22;44.66;98064.95;1688008;84;21542;-49
2022/02/17 07:06:14;;;;;;;57.35;36.68;;;;;;;15.10;44.76;98065.53;1677370;84;21502;-49
2022/02/17 07:08:43;;;;;;;55.12;34.13;;;;;;;15.26;44.70;98059.77;1684220;83;21018;-49
2022/02/17 07:11:12;;;;;;;54.50;35.30;;;;;;;15.32;44.63;98058.72;1686897;84;21560;-50
2022/02/17 07:13:39;;;;;;;58.45;37.88;;;;;;;15.40;44.23;98054.08;1682993;83;21691;-50
2022/02/17 07:16:06;;;;;;;55.10;36.13;;;;;;;15.29;44.43;98051.53;1685808;83;21577;-50
2022/02/17 07:18:32;;;;;;;53.90;35.63;;;;;;;15.37;44.46;98046.42;1667549;84;21723;-52
2022/02/17 07:20:59;;;;;;;54.25;35.28;;;;;;;15.40;44.52;98038.19;1673913;83;21577;-50
2022/02/17 07:23:26;;;;;;;54.67;34.60;;;;;;;15.70;43.95;98027.17;1685590;84;21505;-50
2022/02/17 07:25:53;;;;;;;51.68;37.08;;;;;;;15.77;43.50;98015.08;1686706;84;21817;-50
2022/02/17 07:28:26;;;;;;;59.53;37.90;;;;;;;15.75;43.41;97999.81;1687042;84;21073;-50
2022/02/17 07:30:49;;;;;;;57.35;40.25;;;;;;;15.65;43.79;97987.00;1687076;84;21521;-50
2022/02/17 07:33:17;;;;;;;56.00;36.10;;;;;;;15.96;43.60;97974.50;1688317;84;21474;-50
2022/02/17 07:35:44;;;;;;;52.93;35.80;;;;;;;16.12;43.20;97961.98;1684695;84;21503;-50
2022/02/17 07:38:12;;;;;;;52.67;33.80;;;;;;;16.01;43.11;97966.11;1684812;83;21767;-51
2022/02/17 07:40:40;;;;;;;;;;;;;;;15.56;43.68;97958.22;1688528;83;21586;-51
2022/02/17 07:43:08;;;;;;;49.95;33.42;;;;;;;15.55;43.94;97958.69;1684643;83;20467;-51
2022/02/17 07:45:36;;;;;;;51.13;32.42;;;;;;;16.03;43.06;97938.50;1683576;83;22127;-51
2022/02/17 07:48:04;;;;;;;51.25;33.30;;;;;;;16.20;42.80;97938.27;1684517;83;21624;-51
2022/02/17 07:50:32;;;;;;;52.40;35.25;;;;;;;16.33;42.40;97930.83;1686472;83;21767;-51
2022/02/17 07:52:59;;;;;;;50.43;33.40;;;;;;;16.69;41.93;97913.73;1685643;83;20959;-52
2022/02/17 07:55:27;;;;;;;51.58;33.63;;;;;;;17.12;41.54;97907.45;1683840;83;21589;-51
2022/02/17 07:58:00;;;;;;;46.95;32.93;;;;;;;17.85;40.43;97907.34;1666616;84;21531;-50
2022/02/17 08:00:24;;;;;;;47.40;31.35;;;;;;;17.90;39.85;97910.38;1666723;84;21011;-51
2022/02/17 08:02:51;;;;;;;49.53;34.48;;;;;;;18.17;39.35;97912.55;1677402;83;21609;-51
2022/02/17 08:05:18;;;;;;;48.13;32.60;;;;;;;18.07;39.30;97915.32;1675951;83;21443;-50
2022/02/17 08:07:45;;;;;;;42.93;30.20;;;;;;;17.77;39.48;97923.20;1675046;84;21507;-51
2022/02/17 08:10:11;;;;;;;45.98;30.72;;;;;;;18.12;39.34;97920.66;1676747;83;21562;-51
2022/02/17 08:12:42;;;;;;;49.05;33.65;;;;;;;18.72;38.57;97933.16;1675586;83;21652;-50
2022/02/17 08:15:09;;;;;;;49.85;33.85;;;;;;;18.89;38.13;97932.77;1674005;83;21834;-50
2022/02/17 08:17:37;;;;;;;50.40;35.20;;;;;;;18.98;37.76;97931.31;1676096;83;22757;-50
2022/02/17 08:20:06;;;;;;;53.55;35.20;;;;;;;18.98;37.68;97928.64;1676396;84;21636;-50
2022/02/17 08:22:36;;;;;;;48.90;33.63;;;;;;;19.11;37.59;97917.54;1663121;83;21517;-51
2022/02/17 08:25:03;;;;;;;47.95;33.60;;;;;;;19.16;37.52;97919.23;1677074;84;21021;-51
2022/02/17 08:27:31;;;;;;;47.03;33.38;;;;;;;19.36;37.03;97898.95;1668253;83;21645;-52
2022/02/17 08:29:58;;;;;;;46.40;32.63;;;;;;;19.34;37.16;97896.95;1654695;84;21487;-51
2022/02/17 08:32:25;;;;;;;52.13;34.58;;;;;;;19.39;37.01;97879.98;1713759;82;21478;-50
2022/02/17 08:34:53;;;;;;;51.58;37.08;;;;;;;19.00;37.29;97877.89;1710294;82;21031;-50
2022/02/17 08:37:20;;;;;;;49.27;33.58;;;;;;;18.97;37.35;97865.75;1733751;82;21435;-50
2022/02/17 08:39:47;;;;;;;52.30;36.77;;;;;;;19.15;37.28;97849.63;1732067;82;22108;-49
2022/02/17 08:42:14;;;;;;;48.00;33.67;;;;;;;19.28;37.07;97841.16;1713540;82;21574;-50
2022/02/17 08:44:41;;;;;;;42.73;29.65;;;;;;;19.66;36.97;97836.16;1727313;82;21570;-51
2022/02/17 08:47:08;;;;;;;46.83;33.80;;;;;;;19.61;36.83;97828.69;1722079;82;21470;-52
2022/02/17 08:49:35;;;;;;;47.20;32.33;;;;;;;19.70;36.35;97829.49;1733605;82;21517;-52
2022/02/17 08:52:02;;;;;;;50.55;31.68;;;;;;;19.60;36.59;97835.00;1723669;82;21617;-51
2022/02/17 08:54:28;;;;;;;48.73;35.47;;;;;;;19.52;36.54;97840.85;1723528;82;21507;-49
2022/02/17 08:56:55;;;;;;;46.35;31.45;;;;;;;19.17;36.94;97839.63;1716524;82;21585;-49
2022/02/17 08:59:22;;;;;;;48.70;32.15;;;;;;;19.39;36.83;97828.02;1723441;82;21605;-50
2022/02/17 09:01:49;;;;;;;47.08;33.02;;;;;;;19.33;36.72;97828.18;1734882;81;21649;-50
2022/02/17 09:04:16;;;;;;;45.15;32.55;;;;;;;19.08;36.97;97823.81;1725217;82;21839;-50
2022/02/17 09:06:42;;;;;;;45.17;32.88;;;;;;;18.83;37.30;97819.77;1718862;81;21627;-53
2022/02/17 09:09:09;;;;;;;46.25;31.80;;;;;;;18.45;37.75;97816.11;1721245;81;21076;-50
2022/02/17 09:11:35;;;;;;;47.10;31.48;;;;;;;18.59;37.59;97815.16;1733065;81;21520;-51
2022/02/17 09:14:03;;;;;;;42.98;31.48;;;;;;;18.35;38.31;97792.80;1722394;82;21623;-49
2022/02/17 09:16:29;;;;;;;43.90;30.40;;;;;;;18.52;37.92;97795.53;1729986;81;21580;-50
2022/02/17 09:18:56;;;;;;;43.87;31.75;;;;;;;18.56;37.89;97788.38;1739354;81;21615;-51
2022/02/17 09:21:24;;;;;;;40.88;31.15;;;;;;;18.55;37.94;97780.05;1722934;82;21502;-50
2022/02/17 09:23:52;;;;;;;46.48;32.08;;;;;;;18.37;38.16;97768.70;1737966;82;21502;-50
2022/02/17 09:26:19;;;;;;;42.35;30.48;;;;;;;18.40;38.11;97765.70;1726123;82;21550;-50
2022/02/17 09:28:48;;;;;;;40.80;29.23;;;;;;;18.38;38.15;97757.05;1738898;81;21803;-49
2022/02/17 09:31:19;;;;;;;41.53;28.55;;;;;;;18.29;38.47;97748.23;1731319;81;21560;-50
2022/02/17 09:33:46;;;;;;;42.00;29.60;;;;;;;18.50;38.40;97734.48;1714367;81;21025;-51
2022/02/17 09:36:13;;;;;;;43.30;31.82;;;;;;;18.27;38.45;97735.08;1739126;81;21493;-53
2022/02/17 09:38:40;;;;;;;40.00;27.95;;;;;;;18.22;38.59;97726.74;1730910;81;21628;-53
2022/02/17 09:41:10;;;;;;;45.85;31.52;;;;;;;18.23;38.58;97721.77;1736686;81;21783;-54
2022/02/17 09:43:38;;;;;;;39.83;29.95;;;;;;;18.33;38.52;97707.48;1675964;84;21594;-53
2022/02/17 09:46:05;;;;;;;42.85;29.45;;;;;;;18.33;38.58;97708.80;1677930;84;25761;-51
2022/02/17 09:48:32;;;;;;;45.65;33.08;;;;;;;18.35;38.77;97696.20;1673500;85;21447;-51
2022/02/17 09:50:59;;;;;;;43.95;37.25;;;;;;;18.43;38.81;97693.05;1674470;85;21459;-51
2022/02/17 09:53:26;;;;;;;53.55;47.73;;;;;;;18.87;38.17;97683.98;1699671;83;21866;-52
2022/02/17 09:55:52;;;;;;;41.68;31.00;;;;;;;18.49;38.61;97681.74;1679072;83;21588;-52
2022/02/17 09:58:19;;;;;;;46.02;37.15;;;;;;;18.78;38.17;97672.48;1674095;84;21599;-49
2022/02/17 10:00:47;;;;;;;38.28;28.25;;;;;;;18.79;38.09;97662.16;1678469;84;21361;-49
2022/02/17 10:03:26;;;;;;;36.42;27.48;;;;;;;18.67;38.26;97652.84;1652353;85;21584;-50
2022/02/17 10:06:09;;;;;;;45.45;35.13;;;;;;;18.77;38.20;97645.52;1725852;80;22082;-51
2022/02/17 10:08:39;;;;;;;37.58;25.92;;;;;;;18.52;38.54;97637.20;1720048;81;21483;-51
2022/02/17 10:11:08;;;;;;;38.78;26.40;;;;;;;18.68;38.58;97635.39;1731058;81;20990;-51
2022/02/17 10:13:35;;;;;;;35.68;25.45;;;;;;;18.65;38.48;97622.40;1733216;82;21466;-51
2022/02/17 10:16:02;;;;;;;38.83;31.23;;;;;;;18.85;38.09;97620.75;1712080;82;21561;-52
2022/02/17 10:18:30;;;;;;;73.35;44.53;;;;;;;18.66;38.09;97593.44;1731700;82;21786;-52
2022/02/17 10:21:08;;;;;;;52.95;34.20;;;;;;;18.45;38.62;97615.73;1733316;82;21550;-54
2022/02/17 10:23:46;;;;;;;76.77;47.90;;;;;;;18.60;38.37;97612.74;1727444;82;21487;-52
2022/02/17 10:26:17;;;;;;;75.20;43.95;;;;;;;18.94;37.93;97616.27;1727131;82;21542;-52
2022/02/17 10:28:59;;;;;;;39.50;29.10;;;;;;;18.85;38.18;97606.97;1725199;82;21585;-53
2022/02/17 10:31:29;;;;;;;44.05;29.15;;;;;;;18.89;38.24;97594.12;1721572;82;21862;-52
2022/02/17 10:33:58;;;;;;;214.97;123.25;;;;;;;19.03;37.92;97578.80;1722085;82;21408;-52
2022/02/17 10:36:38;;;;;;;50.10;30.60;;;;;;;19.13;37.89;97574.61;1716091;82;21589;-51
2022/02/17 10:39:22;;;;;;;48.02;31.68;;;;;;;19.10;37.70;97572.30;1725748;82;21578;-52
2022/02/17 10:41:55;;;;;;;186.52;166.68;;;;;;;19.39;37.42;97562.37;1729163;82;21434;-52
2022/02/17 10:44:41;;;;;;;95.07;57.90;;;;;;;19.48;37.31;97556.52;1724059;82;21813;-52
2022/02/17 10:47:23;;;;;;;40.75;27.95;;;;;;;19.52;37.08;97559.67;1725890;82;21443;-53
2022/02/17 10:49:52;;;;;;;35.90;25.85;;;;;;;19.56;37.08;97551.14;1725299;82;21046;-53
2022/02/17 10:52:36;;;;;;;192.37;113.65;;;;;;;19.81;37.05;97542.55;1715492;82;20955;-52
2022/02/17 10:55:17;;;;;;;51.45;33.85;;;;;;;19.21;37.83;97525.33;1725835;82;21536;-52
2022/02/17 10:57:45;;;;;;;38.08;26.35;;;;;;;19.52;37.20;97535.18;1719617;82;21818;-54
2022/02/17 11:00:22;;;;;;;114.37;95.97;;;;;;;19.39;37.16;97528.25;1728720;81;21503;-50
2022/02/17 11:02:51;;;;;;;59.77;35.63;;;;;;;18.40;38.46;97530.25;1725818;82;21565;-50
2022/02/17 11:05:18;;;;;;;57.98;35.98;;;;;;;18.49;38.19;97527.41;1717784;82;21640;-50
2022/02/17 11:07:46;;;;;;;37.10;23.32;;;;;;;18.68;38.00;97525.41;1733060;82;21561;-51
2022/02/17 11:10:13;;;;;;;69.25;38.33;;;;;;;18.66;37.93;97517.58;1728422;82;22021;-50
2022/02/17 11:12:41;;;;;;;276.40;212.65;;;;;;;18.45;38.38;97522.10;1732159;82;21498;-52
2022/02/17 11:15:09;;;;;;;64.12;38.95;;;;;;;18.58;38.63;97520.27;1730001;82;21517;-51
2022/02/17 11:17:40;;;;;;;77.58;44.58;;;;;;;18.62;38.74;97519.44;1725848;82;21576;-51
2022/02/17 11:20:17;;;;;;;58.02;33.38;;;;;;;18.76;38.36;97508.59;1727246;82;21463;-50
2022/02/17 11:22:42;;;;;;;44.18;28.92;;;;;;;18.41;38.78;97503.48;1713660;82;22124;-51
2022/02/17 11:25:11;;;;;;;48.93;34.93;;;;;;;18.66;38.50;97488.81;1724667;82;20976;-51
2022/02/17 11:28:02;;;;;;;43.50;29.87;;;;;;;18.63;38.53;97481.19;1724820;82;20998;-50
2022/02/17 11:30:31;;;;;;;35.00;21.15;;;;;;;18.51;38.99;97470.05;1704623;82;21626;-49